sensor_id;sensor_type;location;lat;lon;timestamp;temperature;humidity
44767;DHT22;30487;48.716;9.272;2023-06-22T00:01:04;23.40;99.90
44767;DHT22;30487;48.716;9.272;2023-06-22T00:03:30;23.40;99.90
44767;DHT22;30487;48.716;9.272;2023-06-22T00:05:56;23.40;99.90
44767;DHT22;30487;48.716;9.272;2023-06-22T00:08:22;23.30;99.90
44767;DHT22;30487;48.716;9.272;2023-06-22T00:10:47;23.30;99.90
44767;DHT22;30487;48.716;9.272;2023-06-22T00:13:13;23.30;99.90
44767;DHT22;30487;48.716;9.272;2023-06-22T00:15:41;23.40;99.90
44767;DHT22;30487;48.716;9.272;2023-06-22T00:18:07;23.30;99.90
44767;DHT22;30487;48.716;9.272;2023-06-22T00:20:33;23.30;99.90
44767;DHT22;30487;48.716;9.272;2023-06-22T00:23:02;23.40;99.90
44767;DHT22;30487;48.716;9.272;2023-06-22T00:25:31;23.30;99.90
44767;DHT22;30487;48.716;9.272;2023-06-22T00:27:57;23.30;99.90
44767;DHT22;30487;48.716;9.272;2023-06-22T00:30:22;23.30;99.90
44767;DHT22;30487;48.716;9.272;2023-06-22T00:32:48;23.20;99.90
44767;DHT22;30487;48.716;9.272;2023-06-22T00:35:14;23.20;99.90
44767;DHT22;30487;48.716;9.272;2023-06-22T00:37:39;23.20;99.90
44767;DHT22;30487;48.716;9.272;2023-06-22T00:40:11;23.20;99.90
44767;DHT22;30487;48.716;9.272;2023-06-22T00:42:40;23.20;99.90
44767;DHT22;30487;48.716;9.272;2023-06-22T00:45:07;23.10;99.90
44767;DHT22;30487;48.716;9.272;2023-06-22T00:47:34;23.10;99.90
44767;DHT22;30487;48.716;9.272;2023-06-22T00:50:01;23.10;99.90
44767;DHT22;30487;48.716;9.272;2023-06-22T00:52:28;23.10;99.90
44767;DHT22;30487;48.716;9.272;2023-06-22T00:54:56;23.00;99.90
44767;DHT22;30487;48.716;9.272;2023-06-22T00:57:24;22.90;99.90
44767;DHT22;30487;48.716;9.272;2023-06-22T00:59:54;22.90;99.90
44767;DHT22;30487;48.716;9.272;2023-06-22T01:02:20;22.90;99.90
44767;DHT22;30487;48.716;9.272;2023-06-22T01:04:45;22.90;99.90
44767;DHT22;30487;48.716;9.272;2023-06-22T01:10:22;22.80;99.90
44767;DHT22;30487;48.716;9.272;2023-06-22T01:12:53;22.90;99.90
44767;DHT22;30487;48.716;9.272;2023-06-22T01:15:25;22.70;99.90
44767;DHT22;30487;48.716;9.272;2023-06-22T01:17:53;22.80;99.90
44767;DHT22;30487;48.716;9.272;2023-06-22T01:20:21;22.70;99.90
44767;DHT22;30487;48.716;9.272;2023-06-22T01:26:02;22.60;99.90
44767;DHT22;30487;48.716;9.272;2023-06-22T01:31:07;22.70;99.90
44767;DHT22;30487;48.716;9.272;2023-06-22T01:33:37;22.60;99.90
44767;DHT22;30487;48.716;9.272;2023-06-22T01:36:03;22.60;99.90
44767;DHT22;30487;48.716;9.272;2023-06-22T01:38:30;22.60;99.90
44767;DHT22;30487;48.716;9.272;2023-06-22T01:40:58;22.70;99.90
44767;DHT22;30487;48.716;9.272;2023-06-22T01:43:25;22.70;99.90
44767;DHT22;30487;48.716;9.272;2023-06-22T01:45:52;22.60;99.90
44767;DHT22;30487;48.716;9.272;2023-06-22T01:48:19;22.50;99.90
44767;DHT22;30487;48.716;9.272;2023-06-22T01:50:45;22.60;99.90
44767;DHT22;30487;48.716;9.272;2023-06-22T01:53:11;22.60;99.90
44767;DHT22;30487;48.716;9.272;2023-06-22T01:55:36;22.60;99.90
44767;DHT22;30487;48.716;9.272;2023-06-22T01:58:02;22.60;99.90
44767;DHT22;30487;48.716;9.272;2023-06-22T02:00:31;22.50;99.90
44767;DHT22;30487;48.716;9.272;2023-06-22T02:03:05;22.50;99.90
44767;DHT22;30487;48.716;9.272;2023-06-22T02:05:38;22.40;99.90
44767;DHT22;30487;48.716;9.272;2023-06-22T02:08:09;22.40;99.90
44767;DHT22;30487;48.716;9.272;2023-06-22T02:10:36;22.50;99.90
44767;DHT22;30487;48.716;9.272;2023-06-22T02:13:06;22.50;99.90
44767;DHT22;30487;48.716;9.272;2023-06-22T02:15:32;22.30;99.90
44767;DHT22;30487;48.716;9.272;2023-06-22T02:17:57;22.30;99.90
44767;DHT22;30487;48.716;9.272;2023-06-22T02:20:24;22.20;99.90
44767;DHT22;30487;48.716;9.272;2023-06-22T02:22:49;22.20;99.90
44767;DHT22;30487;48.716;9.272;2023-06-22T02:25:15;22.20;99.90
44767;DHT22;30487;48.716;9.272;2023-06-22T02:27:40;22.20;99.90
44767;DHT22;30487;48.716;9.272;2023-06-22T02:30:08;22.10;99.90
44767;DHT22;30487;48.716;9.272;2023-06-22T02:32:34;22.10;99.90
44767;DHT22;30487;48.716;9.272;2023-06-22T02:35:00;22.10;99.90
44767;DHT22;30487;48.716;9.272;2023-06-22T02:37:29;22.10;99.90
44767;DHT22;30487;48.716;9.272;2023-06-22T02:39:55;22.10;99.90
44767;DHT22;30487;48.716;9.272;2023-06-22T02:42:21;22.10;99.90
44767;DHT22;30487;48.716;9.272;2023-06-22T02:44:47;21.90;99.90
44767;DHT22;30487;48.716;9.272;2023-06-22T02:47:13;22.00;99.90
44767;DHT22;30487;48.716;9.272;2023-06-22T02:49:38;21.90;99.90
44767;DHT22;30487;48.716;9.272;2023-06-22T02:52:04;21.90;99.90
44767;DHT22;30487;48.716;9.272;2023-06-22T02:54:29;21.90;99.90
44767;DHT22;30487;48.716;9.272;2023-06-22T02:56:55;21.90;99.90
44767;DHT22;30487;48.716;9.272;2023-06-22T02:59:21;21.90;99.90
44767;DHT22;30487;48.716;9.272;2023-06-22T03:01:49;21.90;99.90
44767;DHT22;30487;48.716;9.272;2023-06-22T03:04:15;21.90;99.90
44767;DHT22;30487;48.716;9.272;2023-06-22T03:06:41;22.00;99.90
44767;DHT22;30487;48.716;9.272;2023-06-22T03:09:07;22.00;99.90
44767;DHT22;30487;48.716;9.272;2023-06-22T03:11:33;22.00;99.90
44767;DHT22;30487;48.716;9.272;2023-06-22T03:14:00;22.00;99.90
44767;DHT22;30487;48.716;9.272;2023-06-22T03:16:26;22.00;99.90
44767;DHT22;30487;48.716;9.272;2023-06-22T03:18:52;21.90;99.90
44767;DHT22;30487;48.716;9.272;2023-06-22T03:21:19;21.90;99.90
44767;DHT22;30487;48.716;9.272;2023-06-22T03:23:45;21.90;99.90
44767;DHT22;30487;48.716;9.272;2023-06-22T03:26:11;21.90;99.90
44767;DHT22;30487;48.716;9.272;2023-06-22T03:28:37;22.00;99.90
44767;DHT22;30487;48.716;9.272;2023-06-22T03:31:03;21.90;99.90
44767;DHT22;30487;48.716;9.272;2023-06-22T03:33:29;21.90;99.90
44767;DHT22;30487;48.716;9.272;2023-06-22T03:35:55;21.90;99.90
44767;DHT22;30487;48.716;9.272;2023-06-22T03:38:21;21.90;99.90
44767;DHT22;30487;48.716;9.272;2023-06-22T03:40:46;21.90;99.90
44767;DHT22;30487;48.716;9.272;2023-06-22T03:43:12;21.90;99.90
44767;DHT22;30487;48.716;9.272;2023-06-22T03:45:37;21.90;99.90
44767;DHT22;30487;48.716;9.272;2023-06-22T03:48:03;21.90;99.90
44767;DHT22;30487;48.716;9.272;2023-06-22T03:50:29;21.80;99.90
44767;DHT22;30487;48.716;9.272;2023-06-22T03:52:55;21.80;99.90
44767;DHT22;30487;48.716;9.272;2023-06-22T03:55:21;21.80;99.90
44767;DHT22;30487;48.716;9.272;2023-06-22T03:57:46;21.80;99.90
44767;DHT22;30487;48.716;9.272;2023-06-22T04:00:12;21.80;99.90
44767;DHT22;30487;48.716;9.272;2023-06-22T04:02:38;21.90;99.90
44767;DHT22;30487;48.716;9.272;2023-06-22T04:05:04;21.90;99.90
44767;DHT22;30487;48.716;9.272;2023-06-22T04:07:30;21.90;99.90
44767;DHT22;30487;48.716;9.272;2023-06-22T04:09:56;21.90;99.90
44767;DHT22;30487;48.716;9.272;2023-06-22T04:12:21;21.90;99.90
44767;DHT22;30487;48.716;9.272;2023-06-22T04:14:47;22.00;99.90
44767;DHT22;30487;48.716;9.272;2023-06-22T04:17:13;22.00;99.90
44767;DHT22;30487;48.716;9.272;2023-06-22T04:19:40;22.00;99.90
44767;DHT22;30487;48.716;9.272;2023-06-22T04:22:06;22.00;99.90
44767;DHT22;30487;48.716;9.272;2023-06-22T04:24:35;22.00;99.90
44767;DHT22;30487;48.716;9.272;2023-06-22T04:27:01;22.10;99.90
44767;DHT22;30487;48.716;9.272;2023-06-22T04:29:31;22.10;99.90
44767;DHT22;30487;48.716;9.272;2023-06-22T04:31:57;22.10;99.90
44767;DHT22;30487;48.716;9.272;2023-06-22T04:34:24;22.20;99.90
44767;DHT22;30487;48.716;9.272;2023-06-22T04:36:53;22.20;99.90
44767;DHT22;30487;48.716;9.272;2023-06-22T04:39:18;22.20;99.90
44767;DHT22;30487;48.716;9.272;2023-06-22T04:41:44;22.30;99.90
44767;DHT22;30487;48.716;9.272;2023-06-22T04:44:15;22.30;99.90
44767;DHT22;30487;48.716;9.272;2023-06-22T04:46:51;22.30;99.90
44767;DHT22;30487;48.716;9.272;2023-06-22T04:49:20;22.30;99.90
44767;DHT22;30487;48.716;9.272;2023-06-22T04:51:46;22.40;99.90
44767;DHT22;30487;48.716;9.272;2023-06-22T04:54:12;22.40;99.90
44767;DHT22;30487;48.716;9.272;2023-06-22T04:56:37;22.50;99.90
44767;DHT22;30487;48.716;9.272;2023-06-22T04:59:06;22.50;99.90
44767;DHT22;30487;48.716;9.272;2023-06-22T05:01:32;22.60;99.90
44767;DHT22;30487;48.716;9.272;2023-06-22T05:03:58;22.60;99.90
44767;DHT22;30487;48.716;9.272;2023-06-22T05:06:26;22.60;99.90
44767;DHT22;30487;48.716;9.272;2023-06-22T05:08:54;22.70;99.90
44767;DHT22;30487;48.716;9.272;2023-06-22T05:11:27;22.70;99.90
44767;DHT22;30487;48.716;9.272;2023-06-22T05:13:53;22.70;99.90
44767;DHT22;30487;48.716;9.272;2023-06-22T05:16:19;22.80;99.90
44767;DHT22;30487;48.716;9.272;2023-06-22T05:18:52;22.80;99.90
44767;DHT22;30487;48.716;9.272;2023-06-22T05:21:22;22.90;99.90
44767;DHT22;30487;48.716;9.272;2023-06-22T05:23:48;22.90;99.90
44767;DHT22;30487;48.716;9.272;2023-06-22T05:26:13;22.90;99.90
44767;DHT22;30487;48.716;9.272;2023-06-22T05:28:39;23.00;99.90
44767;DHT22;30487;48.716;9.272;2023-06-22T05:31:04;22.90;99.90
44767;DHT22;30487;48.716;9.272;2023-06-22T05:33:30;23.00;99.90
44767;DHT22;30487;48.716;9.272;2023-06-22T05:35:55;23.00;99.90
44767;DHT22;30487;48.716;9.272;2023-06-22T05:38:21;23.10;99.90
44767;DHT22;30487;48.716;9.272;2023-06-22T05:40:47;23.20;99.90
44767;DHT22;30487;48.716;9.272;2023-06-22T05:43:12;23.20;99.90
44767;DHT22;30487;48.716;9.272;2023-06-22T05:45:38;23.30;99.90
44767;DHT22;30487;48.716;9.272;2023-06-22T05:48:04;23.30;99.90
44767;DHT22;30487;48.716;9.272;2023-06-22T05:50:29;23.40;99.90
44767;DHT22;30487;48.716;9.272;2023-06-22T05:52:55;23.40;99.90
44767;DHT22;30487;48.716;9.272;2023-06-22T05:55:20;23.30;99.90
44767;DHT22;30487;48.716;9.272;2023-06-22T05:57:46;23.40;99.90
44767;DHT22;30487;48.716;9.272;2023-06-22T06:00:12;23.30;99.90
44767;DHT22;30487;48.716;9.272;2023-06-22T06:02:38;23.40;99.90
44767;DHT22;30487;48.716;9.272;2023-06-22T06:05:12;23.50;99.90
44767;DHT22;30487;48.716;9.272;2023-06-22T06:07:42;23.50;99.90
44767;DHT22;30487;48.716;9.272;2023-06-22T06:10:08;23.40;99.90
44767;DHT22;30487;48.716;9.272;2023-06-22T06:12:34;23.40;99.90
44767;DHT22;30487;48.716;9.272;2023-06-22T06:14:59;23.40;99.90
44767;DHT22;30487;48.716;9.272;2023-06-22T06:17:25;23.40;99.90
44767;DHT22;30487;48.716;9.272;2023-06-22T06:19:50;23.40;99.90
44767;DHT22;30487;48.716;9.272;2023-06-22T06:22:16;23.50;99.90
44767;DHT22;30487;48.716;9.272;2023-06-22T06:24:41;23.50;99.90
44767;DHT22;30487;48.716;9.272;2023-06-22T06:27:07;23.50;99.90
44767;DHT22;30487;48.716;9.272;2023-06-22T06:29:33;23.50;99.90
44767;DHT22;30487;48.716;9.272;2023-06-22T06:31:59;23.70;99.90
44767;DHT22;30487;48.716;9.272;2023-06-22T06:34:24;23.60;99.90
44767;DHT22;30487;48.716;9.272;2023-06-22T06:36:50;23.70;99.90
44767;DHT22;30487;48.716;9.272;2023-06-22T06:39:16;23.70;99.90
44767;DHT22;30487;48.716;9.272;2023-06-22T06:41:41;23.80;99.90
44767;DHT22;30487;48.716;9.272;2023-06-22T06:44:07;23.90;99.90
44767;DHT22;30487;48.716;9.272;2023-06-22T06:46:33;24.00;99.90
44767;DHT22;30487;48.716;9.272;2023-06-22T06:48:58;24.00;99.90
44767;DHT22;30487;48.716;9.272;2023-06-22T06:51:24;24.10;99.90
44767;DHT22;30487;48.716;9.272;2023-06-22T06:53:50;24.20;99.90
44767;DHT22;30487;48.716;9.272;2023-06-22T06:56:16;24.30;99.90
44767;DHT22;30487;48.716;9.272;2023-06-22T06:58:42;24.40;99.90
44767;DHT22;30487;48.716;9.272;2023-06-22T07:01:08;24.40;99.90
44767;DHT22;30487;48.716;9.272;2023-06-22T07:03:33;24.40;99.90
44767;DHT22;30487;48.716;9.272;2023-06-22T07:05:59;24.60;99.90
44767;DHT22;30487;48.716;9.272;2023-06-22T07:08:25;24.70;99.90
44767;DHT22;30487;48.716;9.272;2023-06-22T07:10:52;24.70;99.90
44767;DHT22;30487;48.716;9.272;2023-06-22T07:13:18;24.80;99.90
44767;DHT22;30487;48.716;9.272;2023-06-22T07:15:43;24.90;99.90
44767;DHT22;30487;48.716;9.272;2023-06-22T07:18:09;24.90;99.90
44767;DHT22;30487;48.716;9.272;2023-06-22T07:20:35;25.00;99.90
44767;DHT22;30487;48.716;9.272;2023-06-22T07:23:00;25.10;99.90
44767;DHT22;30487;48.716;9.272;2023-06-22T07:25:26;25.30;99.90
44767;DHT22;30487;48.716;9.272;2023-06-22T07:28:05;25.40;99.90
44767;DHT22;30487;48.716;9.272;2023-06-22T07:30:32;25.50;99.90
44767;DHT22;30487;48.716;9.272;2023-06-22T07:32:58;25.60;99.90
44767;DHT22;30487;48.716;9.272;2023-06-22T07:35:28;25.70;99.90
44767;DHT22;30487;48.716;9.272;2023-06-22T07:37:54;25.90;99.90
44767;DHT22;30487;48.716;9.272;2023-06-22T07:40:20;26.00;99.90
44767;DHT22;30487;48.716;9.272;2023-06-22T07:42:45;26.00;99.90
44767;DHT22;30487;48.716;9.272;2023-06-22T07:45:13;26.20;99.90
44767;DHT22;30487;48.716;9.272;2023-06-22T07:47:39;26.30;99.90
44767;DHT22;30487;48.716;9.272;2023-06-22T07:50:05;26.30;99.90
44767;DHT22;30487;48.716;9.272;2023-06-22T07:52:31;26.30;99.90
44767;DHT22;30487;48.716;9.272;2023-06-22T07:54:57;26.40;99.90
44767;DHT22;30487;48.716;9.272;2023-06-22T07:57:22;26.50;99.90
44767;DHT22;30487;48.716;9.272;2023-06-22T07:59:48;26.60;99.90
44767;DHT22;30487;48.716;9.272;2023-06-22T08:02:14;26.60;99.90
44767;DHT22;30487;48.716;9.272;2023-06-22T08:04:41;26.80;99.90
44767;DHT22;30487;48.716;9.272;2023-06-22T08:07:07;26.90;99.90
44767;DHT22;30487;48.716;9.272;2023-06-22T08:09:33;27.00;99.90
44767;DHT22;30487;48.716;9.272;2023-06-22T08:11:59;27.00;99.90
44767;DHT22;30487;48.716;9.272;2023-06-22T08:14:26;27.10;99.80
44767;DHT22;30487;48.716;9.272;2023-06-22T08:16:51;27.30;99.90
44767;DHT22;30487;48.716;9.272;2023-06-22T08:19:17;27.50;99.60
44767;DHT22;30487;48.716;9.272;2023-06-22T08:21:43;27.70;99.20
44767;DHT22;30487;48.716;9.272;2023-06-22T08:24:09;27.80;99.10
44767;DHT22;30487;48.716;9.272;2023-06-22T08:26:35;27.60;98.90
44767;DHT22;30487;48.716;9.272;2023-06-22T08:29:03;27.60;98.60
44767;DHT22;30487;48.716;9.272;2023-06-22T08:31:29;27.40;98.60
44767;DHT22;30487;48.716;9.272;2023-06-22T08:33:55;27.40;98.90
44767;DHT22;30487;48.716;9.272;2023-06-22T08:36:21;27.50;98.70
44767;DHT22;30487;48.716;9.272;2023-06-22T08:38:46;27.60;98.80
44767;DHT22;30487;48.716;9.272;2023-06-22T08:41:17;27.80;99.00
44767;DHT22;30487;48.716;9.272;2023-06-22T08:43:43;27.90;98.40
44767;DHT22;30487;48.716;9.272;2023-06-22T08:46:10;27.90;98.30
44767;DHT22;30487;48.716;9.272;2023-06-22T08:48:36;27.80;98.40
44767;DHT22;30487;48.716;9.272;2023-06-22T08:51:02;27.70;98.10
44767;DHT22;30487;48.716;9.272;2023-06-22T08:53:28;27.60;98.40
44767;DHT22;30487;48.716;9.272;2023-06-22T08:55:54;27.60;98.50
44767;DHT22;30487;48.716;9.272;2023-06-22T08:58:19;27.50;98.30
44767;DHT22;30487;48.716;9.272;2023-06-22T09:00:46;27.50;98.50
44767;DHT22;30487;48.716;9.272;2023-06-22T09:03:12;27.60;98.30
44767;DHT22;30487;48.716;9.272;2023-06-22T09:05:38;27.70;98.40
44767;DHT22;30487;48.716;9.272;2023-06-22T09:08:04;27.80;98.10
44767;DHT22;30487;48.716;9.272;2023-06-22T09:10:29;27.90;97.80
44767;DHT22;30487;48.716;9.272;2023-06-22T09:12:57;28.20;97.90
44767;DHT22;30487;48.716;9.272;2023-06-22T09:15:22;28.40;97.00
44767;DHT22;30487;48.716;9.272;2023-06-22T09:17:48;28.50;96.90
44767;DHT22;30487;48.716;9.272;2023-06-22T09:20:14;28.50;97.10
44767;DHT22;30487;48.716;9.272;2023-06-22T09:22:41;28.70;96.60
44767;DHT22;30487;48.716;9.272;2023-06-22T09:25:06;28.70;97.10
44767;DHT22;30487;48.716;9.272;2023-06-22T09:27:32;28.80;96.60
44767;DHT22;30487;48.716;9.272;2023-06-22T09:29:58;29.00;97.00
44767;DHT22;30487;48.716;9.272;2023-06-22T09:32:24;29.20;96.30
44767;DHT22;30487;48.716;9.272;2023-06-22T09:34:51;29.20;96.10
44767;DHT22;30487;48.716;9.272;2023-06-22T09:40:04;29.20;96.20
44767;DHT22;30487;48.716;9.272;2023-06-22T09:42:34;29.30;96.10
44767;DHT22;30487;48.716;9.272;2023-06-22T09:44:59;29.30;96.00
44767;DHT22;30487;48.716;9.272;2023-06-22T09:47:27;29.40;95.40
44767;DHT22;30487;48.716;9.272;2023-06-22T09:49:52;29.40;95.60
44767;DHT22;30487;48.716;9.272;2023-06-22T09:52:21;29.50;95.50
44767;DHT22;30487;48.716;9.272;2023-06-22T09:54:46;29.50;95.60
44767;DHT22;30487;48.716;9.272;2023-06-22T09:57:12;29.60;95.90
44767;DHT22;30487;48.716;9.272;2023-06-22T09:59:38;29.80;96.10
44767;DHT22;30487;48.716;9.272;2023-06-22T10:02:06;30.20;95.20
44767;DHT22;30487;48.716;9.272;2023-06-22T10:04:33;30.60;94.90
44767;DHT22;30487;48.716;9.272;2023-06-22T10:06:58;30.90;93.40
44767;DHT22;30487;48.716;9.272;2023-06-22T10:09:24;30.80;93.60
44767;DHT22;30487;48.716;9.272;2023-06-22T10:11:50;30.60;94.10
44767;DHT22;30487;48.716;9.272;2023-06-22T10:14:15;30.60;93.90
44767;DHT22;30487;48.716;9.272;2023-06-22T10:16:42;30.50;93.80
44767;DHT22;30487;48.716;9.272;2023-06-22T10:19:07;30.40;93.70
44767;DHT22;30487;48.716;9.272;2023-06-22T10:21:33;30.40;93.70
44767;DHT22;30487;48.716;9.272;2023-06-22T10:23:59;30.40;93.80
44767;DHT22;30487;48.716;9.272;2023-06-22T10:26:34;30.50;94.10
44767;DHT22;30487;48.716;9.272;2023-06-22T10:29:01;30.60;94.30
44767;DHT22;30487;48.716;9.272;2023-06-22T10:31:27;30.80;93.50
44767;DHT22;30487;48.716;9.272;2023-06-22T10:33:53;30.90;93.40
44767;DHT22;30487;48.716;9.272;2023-06-22T10:36:19;30.80;92.90
44767;DHT22;30487;48.716;9.272;2023-06-22T10:38:45;30.80;93.10
44767;DHT22;30487;48.716;9.272;2023-06-22T10:41:12;30.70;93.10
44767;DHT22;30487;48.716;9.272;2023-06-22T10:43:38;30.80;92.90
44767;DHT22;30487;48.716;9.272;2023-06-22T10:46:03;30.90;92.70
44767;DHT22;30487;48.716;9.272;2023-06-22T10:48:29;31.00;93.00
44767;DHT22;30487;48.716;9.272;2023-06-22T10:50:55;31.10;93.20
44767;DHT22;30487;48.716;9.272;2023-06-22T10:53:21;31.20;92.60
44767;DHT22;30487;48.716;9.272;2023-06-22T10:55:47;31.20;92.50
44767;DHT22;30487;48.716;9.272;2023-06-22T10:58:13;31.10;92.40
44767;DHT22;30487;48.716;9.272;2023-06-22T11:00:38;31.10;92.30
44767;DHT22;30487;48.716;9.272;2023-06-22T11:03:07;31.00;92.40
44767;DHT22;30487;48.716;9.272;2023-06-22T11:05:33;31.00;92.90
44767;DHT22;30487;48.716;9.272;2023-06-22T11:07:58;31.00;93.00
44767;DHT22;30487;48.716;9.272;2023-06-22T11:10:24;31.00;92.60
44767;DHT22;30487;48.716;9.272;2023-06-22T11:12:50;31.10;92.60
44767;DHT22;30487;48.716;9.272;2023-06-22T11:15:15;31.00;92.20
44767;DHT22;30487;48.716;9.272;2023-06-22T11:17:41;31.10;91.80
44767;DHT22;30487;48.716;9.272;2023-06-22T11:20:07;31.10;91.90
44767;DHT22;30487;48.716;9.272;2023-06-22T11:22:42;31.10;91.80
44767;DHT22;30487;48.716;9.272;2023-06-22T11:25:08;31.20;91.70
44767;DHT22;30487;48.716;9.272;2023-06-22T11:27:34;31.10;91.00
44767;DHT22;30487;48.716;9.272;2023-06-22T11:30:00;31.20;91.60
44767;DHT22;30487;48.716;9.272;2023-06-22T11:32:26;31.20;91.70
44767;DHT22;30487;48.716;9.272;2023-06-22T11:34:51;31.10;91.80
44767;DHT22;30487;48.716;9.272;2023-06-22T11:37:17;31.20;91.60
44767;DHT22;30487;48.716;9.272;2023-06-22T11:39:43;31.20;91.40
44767;DHT22;30487;48.716;9.272;2023-06-22T11:42:11;31.20;91.40
44767;DHT22;30487;48.716;9.272;2023-06-22T11:44:37;31.20;91.40
44767;DHT22;30487;48.716;9.272;2023-06-22T11:47:03;31.30;91.30
44767;DHT22;30487;48.716;9.272;2023-06-22T11:49:30;31.30;91.40
44767;DHT22;30487;48.716;9.272;2023-06-22T11:51:56;31.20;91.20
44767;DHT22;30487;48.716;9.272;2023-06-22T11:54:21;31.10;91.40
44767;DHT22;30487;48.716;9.272;2023-06-22T11:56:47;30.80;90.90
44767;DHT22;30487;48.716;9.272;2023-06-22T11:59:13;30.80;91.10
44767;DHT22;30487;48.716;9.272;2023-06-22T12:01:39;30.80;90.90
44767;DHT22;30487;48.716;9.272;2023-06-22T12:04:04;31.00;90.80
44767;DHT22;30487;48.716;9.272;2023-06-22T12:06:32;31.10;90.60
44767;DHT22;30487;48.716;9.272;2023-06-22T12:08:58;31.00;90.30
44767;DHT22;30487;48.716;9.272;2023-06-22T12:11:24;30.90;89.80
44767;DHT22;30487;48.716;9.272;2023-06-22T12:13:49;30.80;90.00
44767;DHT22;30487;48.716;9.272;2023-06-22T12:16:15;30.80;90.30
44767;DHT22;30487;48.716;9.272;2023-06-22T12:18:40;30.80;90.40
44767;DHT22;30487;48.716;9.272;2023-06-22T12:21:07;30.80;90.60
44767;DHT22;30487;48.716;9.272;2023-06-22T12:23:33;30.90;90.20
44767;DHT22;30487;48.716;9.272;2023-06-22T12:25:58;30.90;90.60
44767;DHT22;30487;48.716;9.272;2023-06-22T12:28:25;30.90;89.90
44767;DHT22;30487;48.716;9.272;2023-06-22T12:30:50;30.90;88.70
44767;DHT22;30487;48.716;9.272;2023-06-22T12:33:16;30.80;89.60
44767;DHT22;30487;48.716;9.272;2023-06-22T12:35:43;30.60;90.00
44767;DHT22;30487;48.716;9.272;2023-06-22T12:38:08;30.50;89.60
44767;DHT22;30487;48.716;9.272;2023-06-22T12:40:34;30.50;89.70
44767;DHT22;30487;48.716;9.272;2023-06-22T12:43:00;30.40;90.20
44767;DHT22;30487;48.716;9.272;2023-06-22T12:45:27;30.20;90.10
44767;DHT22;30487;48.716;9.272;2023-06-22T12:47:56;30.10;90.20
44767;DHT22;30487;48.716;9.272;2023-06-22T12:50:22;30.00;90.60
44767;DHT22;30487;48.716;9.272;2023-06-22T12:52:48;29.90;91.00
44767;DHT22;30487;48.716;9.272;2023-06-22T12:55:13;29.90;91.00
44767;DHT22;30487;48.716;9.272;2023-06-22T12:57:39;29.90;91.70
44767;DHT22;30487;48.716;9.272;2023-06-22T13:00:05;29.90;91.90
44767;DHT22;30487;48.716;9.272;2023-06-22T13:02:33;29.90;91.50
44767;DHT22;30487;48.716;9.272;2023-06-22T13:05:00;30.00;91.10
44767;DHT22;30487;48.716;9.272;2023-06-22T13:07:25;29.90;91.30
44767;DHT22;30487;48.716;9.272;2023-06-22T13:09:51;29.90;91.80
44767;DHT22;30487;48.716;9.272;2023-06-22T13:12:17;29.90;91.80
44767;DHT22;30487;48.716;9.272;2023-06-22T13:14:43;29.80;91.90
44767;DHT22;30487;48.716;9.272;2023-06-22T13:17:09;29.70;92.10
44767;DHT22;30487;48.716;9.272;2023-06-22T13:19:34;29.60;92.10
44767;DHT22;30487;48.716;9.272;2023-06-22T13:22:00;29.60;91.80
44767;DHT22;30487;48.716;9.272;2023-06-22T13:24:26;29.70;91.80
44767;DHT22;30487;48.716;9.272;2023-06-22T13:26:51;29.90;91.70
44767;DHT22;30487;48.716;9.272;2023-06-22T13:29:17;30.00;91.80
44767;DHT22;30487;48.716;9.272;2023-06-22T13:31:42;30.10;91.50
44767;DHT22;30487;48.716;9.272;2023-06-22T13:34:08;30.10;90.80
44767;DHT22;30487;48.716;9.272;2023-06-22T13:36:33;30.10;90.90
44767;DHT22;30487;48.716;9.272;2023-06-22T13:38:59;30.20;91.10
44767;DHT22;30487;48.716;9.272;2023-06-22T13:41:24;30.20;91.20
44767;DHT22;30487;48.716;9.272;2023-06-22T13:43:51;30.20;91.00
44767;DHT22;30487;48.716;9.272;2023-06-22T13:46:16;30.20;90.30
44767;DHT22;30487;48.716;9.272;2023-06-22T13:48:42;30.20;90.30
44767;DHT22;30487;48.716;9.272;2023-06-22T13:51:07;30.30;90.20
44767;DHT22;30487;48.716;9.272;2023-06-22T13:53:33;30.30;90.40
44767;DHT22;30487;48.716;9.272;2023-06-22T13:55:59;30.20;90.50
44767;DHT22;30487;48.716;9.272;2023-06-22T13:58:24;30.20;90.50
44767;DHT22;30487;48.716;9.272;2023-06-22T14:00:50;30.40;90.70
44767;DHT22;30487;48.716;9.272;2023-06-22T14:03:15;30.50;90.30
44767;DHT22;30487;48.716;9.272;2023-06-22T14:05:42;30.60;90.30
44767;DHT22;30487;48.716;9.272;2023-06-22T14:08:08;30.80;90.30
44767;DHT22;30487;48.716;9.272;2023-06-22T14:10:34;30.90;90.00
44767;DHT22;30487;48.716;9.272;2023-06-22T14:12:59;30.80;88.40
44767;DHT22;30487;48.716;9.272;2023-06-22T14:15:25;30.90;87.80
44767;DHT22;30487;48.716;9.272;2023-06-22T14:17:51;30.80;88.00
44767;DHT22;30487;48.716;9.272;2023-06-22T14:20:18;30.90;88.10
44767;DHT22;30487;48.716;9.272;2023-06-22T14:22:43;30.80;88.90
44767;DHT22;30487;48.716;9.272;2023-06-22T14:25:09;30.70;90.00
44767;DHT22;30487;48.716;9.272;2023-06-22T14:27:35;30.70;89.50
44767;DHT22;30487;48.716;9.272;2023-06-22T14:30:00;30.80;88.10
44767;DHT22;30487;48.716;9.272;2023-06-22T14:32:27;30.80;87.70
44767;DHT22;30487;48.716;9.272;2023-06-22T14:34:55;30.90;88.30
44767;DHT22;30487;48.716;9.272;2023-06-22T14:37:20;30.90;87.80
44767;DHT22;30487;48.716;9.272;2023-06-22T14:39:46;31.00;87.90
44767;DHT22;30487;48.716;9.272;2023-06-22T14:42:12;31.10;86.80
44767;DHT22;30487;48.716;9.272;2023-06-22T14:44:37;31.30;85.80
44767;DHT22;30487;48.716;9.272;2023-06-22T14:47:03;31.20;84.50
44767;DHT22;30487;48.716;9.272;2023-06-22T14:49:29;31.20;85.30
44767;DHT22;30487;48.716;9.272;2023-06-22T14:51:55;31.30;84.60
44767;DHT22;30487;48.716;9.272;2023-06-22T14:54:20;31.30;82.40
44767;DHT22;30487;48.716;9.272;2023-06-22T14:56:47;31.40;78.30
44767;DHT22;30487;48.716;9.272;2023-06-22T14:59:13;31.60;77.20
44767;DHT22;30487;48.716;9.272;2023-06-22T15:01:40;31.70;76.80
44767;DHT22;30487;48.716;9.272;2023-06-22T15:04:05;31.70;72.30
44767;DHT22;30487;48.716;9.272;2023-06-22T15:06:31;31.50;73.10
44767;DHT22;30487;48.716;9.272;2023-06-22T15:08:56;31.40;72.00
44767;DHT22;30487;48.716;9.272;2023-06-22T15:11:22;31.30;71.50
44767;DHT22;30487;48.716;9.272;2023-06-22T15:13:48;31.30;71.30
44767;DHT22;30487;48.716;9.272;2023-06-22T15:16:13;31.40;71.20
44767;DHT22;30487;48.716;9.272;2023-06-22T15:18:39;31.50;69.70
44767;DHT22;30487;48.716;9.272;2023-06-22T15:21:07;31.30;70.20
44767;DHT22;30487;48.716;9.272;2023-06-22T15:23:33;31.20;68.80
44767;DHT22;30487;48.716;9.272;2023-06-22T15:26:00;31.00;69.80
44767;DHT22;30487;48.716;9.272;2023-06-22T15:28:28;31.00;67.80
44767;DHT22;30487;48.716;9.272;2023-06-22T15:30:53;30.80;70.50
44767;DHT22;30487;48.716;9.272;2023-06-22T15:33:19;30.80;69.60
44767;DHT22;30487;48.716;9.272;2023-06-22T15:35:44;30.80;69.60